TimeCEST,TemperatureF,Dew PointF,Humidity,Sea Level PressureIn,VisibilityMPH,Wind Direction,Wind SpeedMPH,Gust SpeedMPH,PrecipitationIn,Events,Conditions,WindDirDegrees,DateUTC
12:20 AM,71.6,66.2,83,29.86,-9999.0,Variable,2.3,-,N/A,,Clear,0,2013-08-25 22:20:00
12:50 AM,71.6,64.4,78,29.86,6.2,NE,3.5,-,N/A,,Scattered Clouds,40,2013-08-25 22:50:00
1:20 AM,71.6,64.4,78,29.83,6.2,Variable,2.3,-,N/A,,Scattered Clouds,0,2013-08-25 23:20:00
1:50 AM,71.6,64.4,78,29.83,6.2,Variable,2.3,-,N/A,,Scattered Clouds,0,2013-08-25 23:50:00
2:20 AM,71.6,64.4,78,29.83,6.2,NNE,3.5,-,N/A,,Scattered Clouds,20,2013-08-26 00:20:00
2:50 AM,71.6,62.6,73,29.83,6.2,NNW,4.6,-,N/A,,Scattered Clouds,340,2013-08-26 00:50:00
3:20 AM,71.6,62.6,73,29.83,6.2,Variable,1.2,-,N/A,,Scattered Clouds,0,2013-08-26 01:20:00
3:50 AM,71.6,64.4,78,29.83,6.2,Variable,2.3,-,N/A,,Scattered Clouds,0,2013-08-26 01:50:00
4:20 AM,71.6,64.4,78,29.83,6.2,North,2.3,-,N/A,,Scattered Clouds,10,2013-08-26 02:20:00
4:50 AM,71.6,64.4,78,29.83,6.2,Variable,1.2,-,N/A,,Scattered Clouds,0,2013-08-26 02:50:00
5:20 AM,69.8,64.4,83,29.83,6.2,Calm,Calm,-,N/A,,Scattered Clouds,0,2013-08-26 03:20:00
5:50 AM,69.8,64.4,83,29.83,6.2,Variable,2.3,-,N/A,,Scattered Clouds,0,2013-08-26 03:50:00
6:20 AM,68.0,62.6,83,29.86,-9999.0,Calm,Calm,-,N/A,,Clear,0,2013-08-26 04:20:00
6:50 AM,69.8,64.4,83,29.86,-9999.0,Variable,1.2,-,N/A,,Clear,0,2013-08-26 04:50:00
7:20 AM,73.4,64.4,73,29.86,-9999.0,Variable,1.2,-,N/A,,Clear,0,2013-08-26 05:20:00
7:50 AM,73.4,66.2,78,29.86,6.2,Variable,2.3,-,N/A,,Partly Cloudy,0,2013-08-26 05:50:00
8:20 AM,78.8,66.2,65,29.89,6.2,Calm,Calm,-,N/A,,Scattered Clouds,0,2013-08-26 06:20:00
8:50 AM,78.8,68.0,69,29.86,-9999.0,SSE,3.5,-,N/A,,Clear,160,2013-08-26 06:50:00
9:20 AM,80.6,62.6,54,29.89,-9999.0,Variable,3.5,-,N/A,,Clear,0,2013-08-26 07:20:00
9:50 AM,80.6,62.6,54,29.89,-9999.0,Variable,2.3,-,N/A,,Clear,0,2013-08-26 07:50:00
10:20 AM,84.2,59.0,42,29.89,-9999.0,Variable,2.3,-,N/A,,Clear,0,2013-08-26 08:20:00
10:50 AM,82.4,62.6,51,29.89,-9999.0,Variable,5.8,-,N/A,,Clear,0,2013-08-26 08:50:00
11:20 AM,82.4,64.4,54,29.89,-9999.0,South,6.9,-,N/A,,Clear,190,2013-08-26 09:20:00
11:50 AM,84.2,62.6,48,29.89,-9999.0,Variable,3.5,-,N/A,,Clear,0,2013-08-26 09:50:00
12:20 PM,84.2,62.6,48,29.89,-9999.0,Variable,3.5,-,N/A,,Clear,0,2013-08-26 10:20:00
12:50 PM,84.2,59.0,42,29.89,-9999.0,SSW,11.5,-,N/A,,Clear,200,2013-08-26 10:50:00
1:20 PM,84.2,57.2,40,29.89,6.2,SSW,10.4,-,N/A,,Partly Cloudy,210,2013-08-26 11:20:00
1:50 PM,82.4,60.8,48,29.89,-9999.0,South,10.4,-,N/A,,Clear,190,2013-08-26 11:50:00
2:20 PM,82.4,66.2,58,29.89,6.2,SSW,11.5,-,N/A,,Partly Cloudy,200,2013-08-26 12:20:00
2:50 PM,84.2,64.4,51,29.89,6.2,SSW,10.4,-,N/A,,Partly Cloudy,200,2013-08-26 12:50:00
3:20 PM,82.4,62.6,51,29.89,6.2,SSW,9.2,-,N/A,,Scattered Clouds,200,2013-08-26 13:20:00
3:50 PM,82.4,62.6,51,29.89,6.2,SSW,9.2,-,N/A,,Scattered Clouds,200,2013-08-26 13:50:00
4:20 PM,84.2,59.0,42,29.89,6.2,South,9.2,-,N/A,,Partly Cloudy,190,2013-08-26 14:20:00
4:50 PM,84.2,62.6,48,29.89,6.2,SSW,8.1,-,N/A,,Partly Cloudy,210,2013-08-26 14:50:00
5:20 PM,82.4,66.2,58,29.86,6.2,South,6.9,-,N/A,,Partly Cloudy,190,2013-08-26 15:20:00
5:50 PM,82.4,66.2,58,29.86,6.2,SSW,6.9,-,N/A,,Partly Cloudy,200,2013-08-26 15:50:00
6:20 PM,82.4,66.2,58,29.89,6.2,SSW,6.9,-,N/A,,Partly Cloudy,200,2013-08-26 16:20:00
6:50 PM,80.6,68.0,65,29.86,-9999.0,South,6.9,-,N/A,,Clear,190,2013-08-26 16:50:00
7:20 PM,78.8,69.8,74,29.89,-9999.0,SSW,3.5,-,N/A,,Clear,210,2013-08-26 17:20:00
7:50 PM,78.8,69.8,74,29.86,-9999.0,Variable,3.5,-,N/A,,Clear,0,2013-08-26 17:50:00
8:20 PM,78.8,69.8,74,29.89,6.2,Calm,Calm,-,N/A,,Partly Cloudy,0,2013-08-26 18:20:00
8:50 PM,78.8,69.8,74,29.89,6.2,Variable,1.2,-,N/A,,Partly Cloudy,0,2013-08-26 18:50:00
9:20 PM,78.8,69.8,74,29.89,6.2,NNW,3.5,-,N/A,,Partly Cloudy,330,2013-08-26 19:20:00
9:50 PM,78.8,68.0,69,29.89,-9999.0,North,-9999.0,-,N/A,,Unknown,0,2013-08-26 19:50:00
10:20 PM,78.8,68.0,69,29.89,6.2,NNE,3.5,-,N/A,,Partly Cloudy,20,2013-08-26 20:20:00
10:50 PM,77.0,66.2,69,29.89,6.2,Variable,2.3,-,N/A,,Partly Cloudy,0,2013-08-26 20:50:00
11:20 PM,77.0,66.2,69,29.86,6.2,NW,2.3,-,N/A,,Partly Cloudy,320,2013-08-26 21:20:00
11:50 PM,77.0,68.0,74,29.86,6.2,West,2.3,-,N/A,,Partly Cloudy,260,2013-08-26 21:50:00